sensor_id;sensor_type;location;lat;lon;timestamp;P1;durP1;ratioP1;P2;durP2;ratioP2
25962;SDS011;13760;52.588;13.406;2022-07-18T00:02:20;6.35;;;3.58;;
25962;SDS011;13760;52.588;13.406;2022-07-18T00:04:46;7.72;;;3.63;;
25962;SDS011;13760;52.588;13.406;2022-07-18T00:07:12;8.18;;;3.47;;
25962;SDS011;13760;52.588;13.406;2022-07-18T00:09:39;9.55;;;3.30;;
25962;SDS011;13760;52.588;13.406;2022-07-18T00:12:05;7.25;;;3.50;;
25962;SDS011;13760;52.588;13.406;2022-07-18T00:14:32;5.65;;;3.00;;
25962;SDS011;13760;52.588;13.406;2022-07-18T00:16:58;6.93;;;3.55;;
25962;SDS011;13760;52.588;13.406;2022-07-18T00:19:25;6.72;;;3.05;;
25962;SDS011;13760;52.588;13.406;2022-07-18T00:21:51;5.97;;;3.13;;
25962;SDS011;13760;52.588;13.406;2022-07-18T00:24:17;9.27;;;3.45;;
25962;SDS011;13760;52.588;13.406;2022-07-18T00:26:42;8.02;;;3.53;;
25962;SDS011;13760;52.588;13.406;2022-07-18T00:29:08;11.25;;;3.67;;
25962;SDS011;13760;52.588;13.406;2022-07-18T00:31:34;8.85;;;3.13;;
25962;SDS011;13760;52.588;13.406;2022-07-18T00:34:00;6.47;;;3.10;;
25962;SDS011;13760;52.588;13.406;2022-07-18T00:36:27;7.97;;;3.22;;
25962;SDS011;13760;52.588;13.406;2022-07-18T00:38:52;5.65;;;2.88;;
25962;SDS011;13760;52.588;13.406;2022-07-18T00:41:18;6.68;;;2.90;;
25962;SDS011;13760;52.588;13.406;2022-07-18T00:43:44;6.35;;;2.70;;
25962;SDS011;13760;52.588;13.406;2022-07-18T00:46:09;6.47;;;2.83;;
25962;SDS011;13760;52.588;13.406;2022-07-18T00:48:42;5.20;;;2.65;;
25962;SDS011;13760;52.588;13.406;2022-07-18T00:51:08;8.23;;;3.00;;
25962;SDS011;13760;52.588;13.406;2022-07-18T00:53:34;4.53;;;2.40;;
25962;SDS011;13760;52.588;13.406;2022-07-18T00:56:01;6.97;;;2.97;;
25962;SDS011;13760;52.588;13.406;2022-07-18T00:58:27;7.45;;;2.88;;
25962;SDS011;13760;52.588;13.406;2022-07-18T01:00:53;5.50;;;2.42;;
25962;SDS011;13760;52.588;13.406;2022-07-18T01:03:38;5.35;;;2.45;;
25962;SDS011;13760;52.588;13.406;2022-07-18T01:06:04;4.45;;;2.47;;
25962;SDS011;13760;52.588;13.406;2022-07-18T01:08:30;5.07;;;2.50;;
25962;SDS011;13760;52.588;13.406;2022-07-18T01:10:55;5.80;;;2.42;;
25962;SDS011;13760;52.588;13.406;2022-07-18T01:13:21;4.82;;;2.38;;
25962;SDS011;13760;52.588;13.406;2022-07-18T01:15:47;6.45;;;2.30;;
25962;SDS011;13760;52.588;13.406;2022-07-18T01:18:13;4.93;;;2.28;;
25962;SDS011;13760;52.588;13.406;2022-07-18T01:20:39;4.95;;;2.45;;
25962;SDS011;13760;52.588;13.406;2022-07-18T01:23:04;5.57;;;2.65;;
25962;SDS011;13760;52.588;13.406;2022-07-18T01:25:30;10.48;;;2.30;;
25962;SDS011;13760;52.588;13.406;2022-07-18T01:27:56;8.25;;;2.15;;
25962;SDS011;13760;52.588;13.406;2022-07-18T01:30:24;3.10;;;2.03;;
25962;SDS011;13760;52.588;13.406;2022-07-18T01:32:55;8.13;;;2.22;;
25962;SDS011;13760;52.588;13.406;2022-07-18T01:35:26;4.28;;;2.42;;
25962;SDS011;13760;52.588;13.406;2022-07-18T01:37:53;5.00;;;2.30;;
25962;SDS011;13760;52.588;13.406;2022-07-18T01:40:21;5.57;;;2.40;;
25962;SDS011;13760;52.588;13.406;2022-07-18T01:42:48;4.90;;;2.30;;
25962;SDS011;13760;52.588;13.406;2022-07-18T01:45:14;7.35;;;2.40;;
25962;SDS011;13760;52.588;13.406;2022-07-18T01:47:40;5.38;;;2.30;;
25962;SDS011;13760;52.588;13.406;2022-07-18T01:50:07;7.45;;;2.20;;
25962;SDS011;13760;52.588;13.406;2022-07-18T01:52:34;5.45;;;2.45;;
25962;SDS011;13760;52.588;13.406;2022-07-18T01:55:00;9.32;;;2.75;;
25962;SDS011;13760;52.588;13.406;2022-07-18T01:57:25;8.65;;;2.65;;
25962;SDS011;13760;52.588;13.406;2022-07-18T01:59:51;7.10;;;2.33;;
25962;SDS011;13760;52.588;13.406;2022-07-18T02:02:17;4.97;;;2.30;;
25962;SDS011;13760;52.588;13.406;2022-07-18T02:04:43;5.25;;;2.67;;
25962;SDS011;13760;52.588;13.406;2022-07-18T02:09:58;6.38;;;2.47;;
25962;SDS011;13760;52.588;13.406;2022-07-18T02:12:24;8.45;;;2.70;;
25962;SDS011;13760;52.588;13.406;2022-07-18T02:14:50;5.18;;;2.65;;
25962;SDS011;13760;52.588;13.406;2022-07-18T02:17:16;4.88;;;2.70;;
25962;SDS011;13760;52.588;13.406;2022-07-18T02:19:44;8.90;;;2.70;;
25962;SDS011;13760;52.588;13.406;2022-07-18T02:22:10;4.50;;;2.13;;
25962;SDS011;13760;52.588;13.406;2022-07-18T02:24:35;6.47;;;2.80;;
25962;SDS011;13760;52.588;13.406;2022-07-18T02:27:01;4.75;;;2.20;;
25962;SDS011;13760;52.588;13.406;2022-07-18T02:29:27;7.35;;;2.45;;
25962;SDS011;13760;52.588;13.406;2022-07-18T02:31:53;7.43;;;2.40;;
25962;SDS011;13760;52.588;13.406;2022-07-18T02:34:19;5.93;;;2.80;;
25962;SDS011;13760;52.588;13.406;2022-07-18T02:36:44;5.78;;;2.50;;
25962;SDS011;13760;52.588;13.406;2022-07-18T02:39:10;8.52;;;2.92;;
25962;SDS011;13760;52.588;13.406;2022-07-18T02:41:36;8.40;;;2.63;;
25962;SDS011;13760;52.588;13.406;2022-07-18T02:44:02;5.95;;;2.58;;
25962;SDS011;13760;52.588;13.406;2022-07-18T02:46:29;6.80;;;2.90;;
25962;SDS011;13760;52.588;13.406;2022-07-18T02:48:54;8.00;;;2.88;;
25962;SDS011;13760;52.588;13.406;2022-07-18T02:51:20;4.32;;;2.45;;
25962;SDS011;13760;52.588;13.406;2022-07-18T02:53:48;6.22;;;2.83;;
25962;SDS011;13760;52.588;13.406;2022-07-18T02:56:13;5.65;;;2.50;;
25962;SDS011;13760;52.588;13.406;2022-07-18T02:58:39;9.63;;;2.78;;
25962;SDS011;13760;52.588;13.406;2022-07-18T03:01:05;6.05;;;2.67;;
25962;SDS011;13760;52.588;13.406;2022-07-18T03:03:31;5.50;;;2.53;;
25962;SDS011;13760;52.588;13.406;2022-07-18T03:05:56;6.60;;;3.00;;
25962;SDS011;13760;52.588;13.406;2022-07-18T03:08:22;4.75;;;2.90;;
25962;SDS011;13760;52.588;13.406;2022-07-18T03:10:48;4.35;;;2.40;;
25962;SDS011;13760;52.588;13.406;2022-07-18T03:13:13;4.03;;;2.80;;
25962;SDS011;13760;52.588;13.406;2022-07-18T03:15:39;6.10;;;2.63;;
25962;SDS011;13760;52.588;13.406;2022-07-18T03:18:05;3.88;;;2.63;;
25962;SDS011;13760;52.588;13.406;2022-07-18T03:20:31;4.95;;;2.50;;
25962;SDS011;13760;52.588;13.406;2022-07-18T03:23:03;7.75;;;2.50;;
25962;SDS011;13760;52.588;13.406;2022-07-18T03:25:30;5.88;;;3.15;;
25962;SDS011;13760;52.588;13.406;2022-07-18T03:27:56;7.93;;;2.75;;
25962;SDS011;13760;52.588;13.406;2022-07-18T03:30:22;5.57;;;2.60;;
25962;SDS011;13760;52.588;13.406;2022-07-18T03:32:48;5.70;;;3.13;;
25962;SDS011;13760;52.588;13.406;2022-07-18T03:35:14;5.38;;;2.88;;
25962;SDS011;13760;52.588;13.406;2022-07-18T03:37:40;11.60;;;3.17;;
25962;SDS011;13760;52.588;13.406;2022-07-18T03:40:09;6.40;;;2.88;;
25962;SDS011;13760;52.588;13.406;2022-07-18T03:42:36;6.82;;;2.95;;
25962;SDS011;13760;52.588;13.406;2022-07-18T03:45:04;5.63;;;3.03;;
25962;SDS011;13760;52.588;13.406;2022-07-18T03:47:31;5.20;;;3.22;;
25962;SDS011;13760;52.588;13.406;2022-07-18T03:49:59;7.03;;;3.17;;
25962;SDS011;13760;52.588;13.406;2022-07-18T03:52:25;8.05;;;3.30;;
25962;SDS011;13760;52.588;13.406;2022-07-18T03:54:53;5.90;;;2.75;;
25962;SDS011;13760;52.588;13.406;2022-07-18T03:57:33;8.18;;;3.00;;
25962;SDS011;13760;52.588;13.406;2022-07-18T04:00:01;10.55;;;3.00;;
25962;SDS011;13760;52.588;13.406;2022-07-18T04:02:37;8.55;;;3.60;;
25962;SDS011;13760;52.588;13.406;2022-07-18T04:05:04;8.32;;;3.40;;
25962;SDS011;13760;52.588;13.406;2022-07-18T04:07:30;5.97;;;3.00;;
25962;SDS011;13760;52.588;13.406;2022-07-18T04:09:59;6.35;;;3.00;;
25962;SDS011;13760;52.588;13.406;2022-07-18T04:12:27;6.63;;;3.45;;
25962;SDS011;13760;52.588;13.406;2022-07-18T04:14:55;7.60;;;3.63;;
25962;SDS011;13760;52.588;13.406;2022-07-18T04:17:23;9.30;;;3.50;;
25962;SDS011;13760;52.588;13.406;2022-07-18T04:19:49;6.07;;;3.30;;
25962;SDS011;13760;52.588;13.406;2022-07-18T04:22:16;7.28;;;3.40;;
25962;SDS011;13760;52.588;13.406;2022-07-18T04:24:42;10.40;;;3.33;;
25962;SDS011;13760;52.588;13.406;2022-07-18T04:27:08;6.45;;;3.47;;
25962;SDS011;13760;52.588;13.406;2022-07-18T04:29:37;9.23;;;3.80;;
25962;SDS011;13760;52.588;13.406;2022-07-18T04:32:03;8.02;;;3.53;;
25962;SDS011;13760;52.588;13.406;2022-07-18T04:34:29;8.68;;;3.95;;
25962;SDS011;13760;52.588;13.406;2022-07-18T04:36:55;6.53;;;3.58;;
25962;SDS011;13760;52.588;13.406;2022-07-18T04:39:24;8.82;;;3.90;;
25962;SDS011;13760;52.588;13.406;2022-07-18T04:41:50;8.80;;;3.70;;
25962;SDS011;13760;52.588;13.406;2022-07-18T04:44:18;7.70;;;3.95;;
25962;SDS011;13760;52.588;13.406;2022-07-18T04:46:47;6.43;;;3.28;;
25962;SDS011;13760;52.588;13.406;2022-07-18T04:49:12;11.80;;;3.58;;
25962;SDS011;13760;52.588;13.406;2022-07-18T04:51:38;15.50;;;4.00;;
25962;SDS011;13760;52.588;13.406;2022-07-18T04:54:06;6.57;;;3.83;;
25962;SDS011;13760;52.588;13.406;2022-07-18T04:56:33;7.55;;;3.70;;
25962;SDS011;13760;52.588;13.406;2022-07-18T04:58:59;8.20;;;3.58;;
25962;SDS011;13760;52.588;13.406;2022-07-18T05:01:34;9.43;;;3.58;;
25962;SDS011;13760;52.588;13.406;2022-07-18T05:04:04;9.82;;;3.38;;
25962;SDS011;13760;52.588;13.406;2022-07-18T05:06:30;9.43;;;3.47;;
25962;SDS011;13760;52.588;13.406;2022-07-18T05:08:58;8.40;;;3.65;;
25962;SDS011;13760;52.588;13.406;2022-07-18T05:11:30;8.60;;;3.53;;
25962;SDS011;13760;52.588;13.406;2022-07-18T05:16:48;7.07;;;3.38;;
25962;SDS011;13760;52.588;13.406;2022-07-18T05:19:14;6.53;;;3.22;;
25962;SDS011;13760;52.588;13.406;2022-07-18T05:21:41;11.63;;;4.07;;
25962;SDS011;13760;52.588;13.406;2022-07-18T05:24:12;6.97;;;3.10;;
25962;SDS011;13760;52.588;13.406;2022-07-18T05:26:41;10.05;;;3.25;;
25962;SDS011;13760;52.588;13.406;2022-07-18T05:29:09;7.85;;;3.22;;
25962;SDS011;13760;52.588;13.406;2022-07-18T05:31:37;6.05;;;2.97;;
25962;SDS011;13760;52.588;13.406;2022-07-18T05:34:07;8.95;;;3.60;;
25962;SDS011;13760;52.588;13.406;2022-07-18T05:36:40;5.63;;;3.17;;
25962;SDS011;13760;52.588;13.406;2022-07-18T05:39:08;6.07;;;2.95;;
25962;SDS011;13760;52.588;13.406;2022-07-18T05:41:38;11.07;;;3.28;;
25962;SDS011;13760;52.588;13.406;2022-07-18T05:44:04;6.32;;;2.83;;
25962;SDS011;13760;52.588;13.406;2022-07-18T05:46:35;5.97;;;2.83;;
25962;SDS011;13760;52.588;13.406;2022-07-18T05:49:09;8.15;;;3.00;;
25962;SDS011;13760;52.588;13.406;2022-07-18T05:51:41;8.60;;;3.17;;
25962;SDS011;13760;52.588;13.406;2022-07-18T05:57:02;6.15;;;2.80;;
25962;SDS011;13760;52.588;13.406;2022-07-18T06:02:51;5.53;;;2.67;;
25962;SDS011;13760;52.588;13.406;2022-07-18T06:05:30;8.95;;;2.53;;
25962;SDS011;13760;52.588;13.406;2022-07-18T06:08:05;6.70;;;2.65;;
25962;SDS011;13760;52.588;13.406;2022-07-18T06:10:46;6.78;;;2.85;;
25962;SDS011;13760;52.588;13.406;2022-07-18T06:13:25;6.28;;;2.40;;
25962;SDS011;13760;52.588;13.406;2022-07-18T06:16:38;5.47;;;2.35;;
25962;SDS011;13760;52.588;13.406;2022-07-18T06:26:01;4.95;;;2.58;;
25962;SDS011;13760;52.588;13.406;2022-07-18T06:32:33;9.10;;;2.88;;
25962;SDS011;13760;52.588;13.406;2022-07-18T06:35:35;5.53;;;2.47;;
25962;SDS011;13760;52.588;13.406;2022-07-18T06:38:40;9.77;;;2.72;;
25962;SDS011;13760;52.588;13.406;2022-07-18T06:41:34;5.60;;;2.50;;
25962;SDS011;13760;52.588;13.406;2022-07-18T06:48:17;6.05;;;2.55;;
25962;SDS011;13760;52.588;13.406;2022-07-18T06:51:11;10.23;;;2.60;;
25962;SDS011;13760;52.588;13.406;2022-07-18T06:53:44;7.50;;;2.70;;
25962;SDS011;13760;52.588;13.406;2022-07-18T06:56:25;8.23;;;2.80;;
25962;SDS011;13760;52.588;13.406;2022-07-18T06:59:02;8.23;;;3.25;;
25962;SDS011;13760;52.588;13.406;2022-07-18T07:01:41;9.98;;;3.30;;
25962;SDS011;13760;52.588;13.406;2022-07-18T07:04:22;7.47;;;2.40;;
25962;SDS011;13760;52.588;13.406;2022-07-18T07:06:58;10.10;;;2.80;;
25962;SDS011;13760;52.588;13.406;2022-07-18T07:09:32;6.88;;;2.60;;
25962;SDS011;13760;52.588;13.406;2022-07-18T07:15:30;6.80;;;2.45;;
25962;SDS011;13760;52.588;13.406;2022-07-18T07:18:14;7.20;;;2.15;;
25962;SDS011;13760;52.588;13.406;2022-07-18T07:21:32;4.47;;;2.15;;
25962;SDS011;13760;52.588;13.406;2022-07-18T07:27:05;5.03;;;1.90;;
25962;SDS011;13760;52.588;13.406;2022-07-18T07:32:35;5.50;;;1.90;;
25962;SDS011;13760;52.588;13.406;2022-07-18T07:35:05;6.60;;;2.00;;
25962;SDS011;13760;52.588;13.406;2022-07-18T07:37:42;4.95;;;2.00;;
25962;SDS011;13760;52.588;13.406;2022-07-18T07:40:31;4.18;;;1.80;;
25962;SDS011;13760;52.588;13.406;2022-07-18T07:43:15;5.90;;;1.90;;
25962;SDS011;13760;52.588;13.406;2022-07-18T07:45:45;7.78;;;2.30;;
25962;SDS011;13760;52.588;13.406;2022-07-18T07:48:12;7.13;;;1.92;;
25962;SDS011;13760;52.588;13.406;2022-07-18T07:50:40;6.25;;;1.95;;
25962;SDS011;13760;52.588;13.406;2022-07-18T07:53:06;5.07;;;1.52;;
25962;SDS011;13760;52.588;13.406;2022-07-18T07:55:40;6.75;;;1.67;;
25962;SDS011;13760;52.588;13.406;2022-07-18T07:58:09;7.43;;;1.80;;
25962;SDS011;13760;52.588;13.406;2022-07-18T08:00:43;6.40;;;1.70;;
25962;SDS011;13760;52.588;13.406;2022-07-18T08:03:29;5.15;;;1.80;;
25962;SDS011;13760;52.588;13.406;2022-07-18T08:06:01;6.43;;;2.10;;
25962;SDS011;13760;52.588;13.406;2022-07-18T08:08:36;7.53;;;1.80;;
25962;SDS011;13760;52.588;13.406;2022-07-18T08:11:07;4.97;;;1.80;;
25962;SDS011;13760;52.588;13.406;2022-07-18T08:13:36;3.20;;;1.80;;
25962;SDS011;13760;52.588;13.406;2022-07-18T08:16:19;4.65;;;2.00;;
25962;SDS011;13760;52.588;13.406;2022-07-18T08:18:47;7.10;;;2.00;;
25962;SDS011;13760;52.588;13.406;2022-07-18T08:21:15;8.13;;;2.10;;
25962;SDS011;13760;52.588;13.406;2022-07-18T08:23:43;3.80;;;1.98;;
25962;SDS011;13760;52.588;13.406;2022-07-18T08:26:13;4.75;;;2.10;;
25962;SDS011;13760;52.588;13.406;2022-07-18T08:28:41;4.25;;;1.70;;
25962;SDS011;13760;52.588;13.406;2022-07-18T08:31:14;8.73;;;2.47;;
25962;SDS011;13760;52.588;13.406;2022-07-18T08:33:41;5.78;;;2.28;;
25962;SDS011;13760;52.588;13.406;2022-07-18T08:36:10;5.80;;;2.53;;
25962;SDS011;13760;52.588;13.406;2022-07-18T08:38:45;6.70;;;2.85;;
25962;SDS011;13760;52.588;13.406;2022-07-18T08:41:21;6.97;;;2.95;;
25962;SDS011;13760;52.588;13.406;2022-07-18T08:43:50;5.70;;;3.05;;
25962;SDS011;13760;52.588;13.406;2022-07-18T08:46:20;6.40;;;3.13;;
25962;SDS011;13760;52.588;13.406;2022-07-18T08:49:02;7.90;;;3.40;;
25962;SDS011;13760;52.588;13.406;2022-07-18T08:51:31;3.78;;;2.90;;
25962;SDS011;13760;52.588;13.406;2022-07-18T08:57:01;5.80;;;2.70;;
25962;SDS011;13760;52.588;13.406;2022-07-18T08:59:39;7.55;;;2.72;;
25962;SDS011;13760;52.588;13.406;2022-07-18T09:02:23;8.07;;;2.75;;
25962;SDS011;13760;52.588;13.406;2022-07-18T09:05:16;5.78;;;2.70;;
25962;SDS011;13760;52.588;13.406;2022-07-18T09:08:26;4.95;;;2.40;;
25962;SDS011;13760;52.588;13.406;2022-07-18T09:10:52;6.25;;;2.25;;
25962;SDS011;13760;52.588;13.406;2022-07-18T09:16:10;5.15;;;2.45;;
25962;SDS011;13760;52.588;13.406;2022-07-18T09:18:38;7.90;;;2.50;;
25962;SDS011;13760;52.588;13.406;2022-07-18T09:23:49;6.05;;;2.40;;
25962;SDS011;13760;52.588;13.406;2022-07-18T09:26:40;3.30;;;2.10;;
25962;SDS011;13760;52.588;13.406;2022-07-18T09:33:16;6.18;;;2.63;;
25962;SDS011;13760;52.588;13.406;2022-07-18T09:36:07;7.68;;;3.00;;
25962;SDS011;13760;52.588;13.406;2022-07-18T09:38:46;6.03;;;3.20;;
25962;SDS011;13760;52.588;13.406;2022-07-18T09:41:12;6.85;;;3.28;;
25962;SDS011;13760;52.588;13.406;2022-07-18T09:43:38;5.45;;;3.20;;
25962;SDS011;13760;52.588;13.406;2022-07-18T09:46:08;7.03;;;3.70;;
25962;SDS011;13760;52.588;13.406;2022-07-18T09:48:34;6.65;;;3.67;;
25962;SDS011;13760;52.588;13.406;2022-07-18T09:56:01;8.02;;;3.33;;
25962;SDS011;13760;52.588;13.406;2022-07-18T09:58:34;7.20;;;3.58;;
25962;SDS011;13760;52.588;13.406;2022-07-18T10:01:02;6.43;;;3.40;;
25962;SDS011;13760;52.588;13.406;2022-07-18T10:03:30;5.07;;;3.15;;
25962;SDS011;13760;52.588;13.406;2022-07-18T10:05:57;9.63;;;3.30;;
25962;SDS011;13760;52.588;13.406;2022-07-18T10:08:24;5.60;;;3.65;;
25962;SDS011;13760;52.588;13.406;2022-07-18T10:10:55;8.38;;;3.30;;
25962;SDS011;13760;52.588;13.406;2022-07-18T10:13:24;5.82;;;3.67;;
25962;SDS011;13760;52.588;13.406;2022-07-18T10:15:54;5.80;;;3.65;;
25962;SDS011;13760;52.588;13.406;2022-07-18T10:18:25;5.40;;;3.80;;
25962;SDS011;13760;52.588;13.406;2022-07-18T10:26:15;6.82;;;3.60;;
25962;SDS011;13760;52.588;13.406;2022-07-18T10:31:24;12.18;;;3.97;;
25962;SDS011;13760;52.588;13.406;2022-07-18T10:36:33;8.80;;;4.00;;
25962;SDS011;13760;52.588;13.406;2022-07-18T10:39:10;6.20;;;3.75;;
25962;SDS011;13760;52.588;13.406;2022-07-18T10:57:28;7.45;;;3.35;;
25962;SDS011;13760;52.588;13.406;2022-07-18T11:00:07;4.30;;;3.30;;
25962;SDS011;13760;52.588;13.406;2022-07-18T11:02:37;7.15;;;2.97;;
25962;SDS011;13760;52.588;13.406;2022-07-18T11:21:17;4.93;;;3.30;;
25962;SDS011;13760;52.588;13.406;2022-07-18T11:23:47;4.82;;;3.20;;
25962;SDS011;13760;52.588;13.406;2022-07-18T11:29:59;10.15;;;3.38;;
25962;SDS011;13760;52.588;13.406;2022-07-18T11:32:24;4.43;;;3.00;;
25962;SDS011;13760;52.588;13.406;2022-07-18T11:34:50;6.97;;;3.05;;
25962;SDS011;13760;52.588;13.406;2022-07-18T11:37:16;5.95;;;3.25;;
25962;SDS011;13760;52.588;13.406;2022-07-18T11:39:42;8.20;;;2.83;;
25962;SDS011;13760;52.588;13.406;2022-07-18T11:42:08;4.82;;;3.03;;
25962;SDS011;13760;52.588;13.406;2022-07-18T11:44:36;7.55;;;3.17;;
25962;SDS011;13760;52.588;13.406;2022-07-18T11:47:05;4.75;;;2.80;;
25962;SDS011;13760;52.588;13.406;2022-07-18T11:49:36;9.48;;;2.80;;
25962;SDS011;13760;52.588;13.406;2022-07-18T11:52:02;5.88;;;2.83;;
25962;SDS011;13760;52.588;13.406;2022-07-18T11:54:30;6.75;;;3.13;;
25962;SDS011;13760;52.588;13.406;2022-07-18T11:56:57;5.00;;;2.92;;
25962;SDS011;13760;52.588;13.406;2022-07-18T11:59:34;5.82;;;2.85;;
25962;SDS011;13760;52.588;13.406;2022-07-18T12:02:09;4.90;;;2.67;;
25962;SDS011;13760;52.588;13.406;2022-07-18T12:04:36;7.65;;;2.80;;
25962;SDS011;13760;52.588;13.406;2022-07-18T12:07:12;6.55;;;2.92;;
25962;SDS011;13760;52.588;13.406;2022-07-18T12:09:39;5.00;;;3.03;;
25962;SDS011;13760;52.588;13.406;2022-07-18T12:12:09;4.13;;;2.92;;
25962;SDS011;13760;52.588;13.406;2022-07-18T12:14:36;3.30;;;2.60;;
25962;SDS011;13760;52.588;13.406;2022-07-18T12:17:03;4.70;;;2.80;;
25962;SDS011;13760;52.588;13.406;2022-07-18T12:19:36;4.70;;;3.00;;
25962;SDS011;13760;52.588;13.406;2022-07-18T12:22:04;4.68;;;3.00;;
25962;SDS011;13760;52.588;13.406;2022-07-18T12:32:27;6.22;;;3.20;;
25962;SDS011;13760;52.588;13.406;2022-07-18T12:34:59;7.82;;;3.30;;
25962;SDS011;13760;52.588;13.406;2022-07-18T12:37:27;5.47;;;3.15;;
25962;SDS011;13760;52.588;13.406;2022-07-18T12:39:58;4.50;;;2.90;;
25962;SDS011;13760;52.588;13.406;2022-07-18T12:42:33;4.55;;;3.05;;
25962;SDS011;13760;52.588;13.406;2022-07-18T12:45:02;5.75;;;2.90;;
25962;SDS011;13760;52.588;13.406;2022-07-18T12:47:36;6.68;;;2.90;;
25962;SDS011;13760;52.588;13.406;2022-07-18T12:50:07;8.35;;;3.03;;
25962;SDS011;13760;52.588;13.406;2022-07-18T12:52:34;5.00;;;3.13;;
25962;SDS011;13760;52.588;13.406;2022-07-18T12:54:59;5.40;;;2.75;;
25962;SDS011;13760;52.588;13.406;2022-07-18T12:57:26;6.72;;;3.03;;
25962;SDS011;13760;52.588;13.406;2022-07-18T12:59:52;4.35;;;2.95;;
25962;SDS011;13760;52.588;13.406;2022-07-18T13:02:18;4.45;;;2.80;;
25962;SDS011;13760;52.588;13.406;2022-07-18T13:04:44;5.28;;;3.05;;
25962;SDS011;13760;52.588;13.406;2022-07-18T13:07:37;5.80;;;2.92;;
25962;SDS011;13760;52.588;13.406;2022-07-18T13:10:36;3.58;;;3.10;;
25962;SDS011;13760;52.588;13.406;2022-07-18T13:15:58;3.70;;;2.63;;
25962;SDS011;13760;52.588;13.406;2022-07-18T13:18:24;6.07;;;3.10;;
25962;SDS011;13760;52.588;13.406;2022-07-18T13:20:51;5.57;;;3.08;;
25962;SDS011;13760;52.588;13.406;2022-07-18T13:23:16;6.00;;;3.00;;
25962;SDS011;13760;52.588;13.406;2022-07-18T13:25:45;6.40;;;2.92;;
25962;SDS011;13760;52.588;13.406;2022-07-18T13:28:21;4.28;;;3.10;;
25962;SDS011;13760;52.588;13.406;2022-07-18T13:30:53;3.80;;;2.80;;
25962;SDS011;13760;52.588;13.406;2022-07-18T13:33:21;5.15;;;3.20;;
25962;SDS011;13760;52.588;13.406;2022-07-18T13:35:55;7.20;;;3.25;;
25962;SDS011;13760;52.588;13.406;2022-07-18T13:38:21;3.38;;;3.00;;
25962;SDS011;13760;52.588;13.406;2022-07-18T13:40:55;4.32;;;3.40;;
25962;SDS011;13760;52.588;13.406;2022-07-18T13:43:29;11.32;;;3.65;;
25962;SDS011;13760;52.588;13.406;2022-07-18T13:45:58;6.13;;;3.78;;
25962;SDS011;13760;52.588;13.406;2022-07-18T13:48:29;6.85;;;3.58;;
25962;SDS011;13760;52.588;13.406;2022-07-18T13:51:09;6.68;;;3.80;;
25962;SDS011;13760;52.588;13.406;2022-07-18T13:53:44;6.22;;;3.58;;
25962;SDS011;13760;52.588;13.406;2022-07-18T13:56:12;5.47;;;3.70;;
25962;SDS011;13760;52.588;13.406;2022-07-18T13:58:47;10.40;;;3.70;;
25962;SDS011;13760;52.588;13.406;2022-07-18T14:01:22;6.40;;;3.50;;
25962;SDS011;13760;52.588;13.406;2022-07-18T14:03:48;5.10;;;3.42;;
25962;SDS011;13760;52.588;13.406;2022-07-18T14:06:21;6.70;;;3.75;;
25962;SDS011;13760;52.588;13.406;2022-07-18T14:08:51;5.05;;;3.30;;
25962;SDS011;13760;52.588;13.406;2022-07-18T14:11:24;6.00;;;3.40;;
25962;SDS011;13760;52.588;13.406;2022-07-18T14:13:50;6.38;;;3.30;;
25962;SDS011;13760;52.588;13.406;2022-07-18T14:16:33;5.68;;;2.83;;
25962;SDS011;13760;52.588;13.406;2022-07-18T14:22:04;4.40;;;3.15;;
25962;SDS011;13760;52.588;13.406;2022-07-18T14:24:37;4.35;;;2.85;;
25962;SDS011;13760;52.588;13.406;2022-07-18T14:27:10;4.55;;;3.17;;
25962;SDS011;13760;52.588;13.406;2022-07-18T14:29:36;4.10;;;3.38;;
25962;SDS011;13760;52.588;13.406;2022-07-18T14:32:04;5.72;;;3.15;;
25962;SDS011;13760;52.588;13.406;2022-07-18T14:34:30;6.10;;;3.35;;
25962;SDS011;13760;52.588;13.406;2022-07-18T14:36:56;6.72;;;3.40;;
25962;SDS011;13760;52.588;13.406;2022-07-18T14:39:24;4.53;;;3.40;;
25962;SDS011;13760;52.588;13.406;2022-07-18T14:41:49;5.80;;;3.30;;
25962;SDS011;13760;52.588;13.406;2022-07-18T14:57:14;6.32;;;2.97;;
25962;SDS011;13760;52.588;13.406;2022-07-18T14:59:44;4.05;;;2.90;;
25962;SDS011;13760;52.588;13.406;2022-07-18T15:02:17;5.18;;;3.28;;
25962;SDS011;13760;52.588;13.406;2022-07-18T15:04:43;4.97;;;3.10;;
25962;SDS011;13760;52.588;13.406;2022-07-18T15:07:08;4.63;;;3.10;;
25962;SDS011;13760;52.588;13.406;2022-07-18T15:09:34;5.57;;;3.20;;
25962;SDS011;13760;52.588;13.406;2022-07-18T15:11:59;4.70;;;2.92;;
25962;SDS011;13760;52.588;13.406;2022-07-18T15:14:34;3.28;;;2.72;;
25962;SDS011;13760;52.588;13.406;2022-07-18T15:17:01;6.32;;;3.45;;
25962;SDS011;13760;52.588;13.406;2022-07-18T15:19:29;5.38;;;2.92;;
25962;SDS011;13760;52.588;13.406;2022-07-18T15:21:55;6.10;;;3.28;;
25962;SDS011;13760;52.588;13.406;2022-07-18T15:24:36;6.35;;;3.10;;
25962;SDS011;13760;52.588;13.406;2022-07-18T15:27:20;7.35;;;3.13;;
25962;SDS011;13760;52.588;13.406;2022-07-18T15:30:16;5.32;;;3.33;;
25962;SDS011;13760;52.588;13.406;2022-07-18T15:36:00;6.55;;;3.28;;
25962;SDS011;13760;52.588;13.406;2022-07-18T15:38:35;6.20;;;3.50;;
25962;SDS011;13760;52.588;13.406;2022-07-18T15:41:13;6.07;;;3.85;;
25962;SDS011;13760;52.588;13.406;2022-07-18T15:43:48;6.68;;;3.38;;
25962;SDS011;13760;52.588;13.406;2022-07-18T15:46:14;5.93;;;3.40;;
25962;SDS011;13760;52.588;13.406;2022-07-18T15:48:54;6.53;;;3.92;;
25962;SDS011;13760;52.588;13.406;2022-07-18T16:04:59;5.55;;;3.50;;
25962;SDS011;13760;52.588;13.406;2022-07-18T16:07:32;6.10;;;3.42;;
25962;SDS011;13760;52.588;13.406;2022-07-18T16:10:00;5.93;;;3.42;;
25962;SDS011;13760;52.588;13.406;2022-07-18T16:12:29;7.40;;;3.45;;
25962;SDS011;13760;52.588;13.406;2022-07-18T16:14:55;7.63;;;3.70;;
25962;SDS011;13760;52.588;13.406;2022-07-18T16:17:23;6.40;;;3.70;;
25962;SDS011;13760;52.588;13.406;2022-07-18T16:23:11;7.03;;;3.70;;
25962;SDS011;13760;52.588;13.406;2022-07-18T16:25:42;5.63;;;3.60;;
25962;SDS011;13760;52.588;13.406;2022-07-18T16:28:08;5.90;;;3.53;;
25962;SDS011;13760;52.588;13.406;2022-07-18T16:41:32;7.33;;;3.67;;
25962;SDS011;13760;52.588;13.406;2022-07-18T16:44:06;6.53;;;4.00;;
25962;SDS011;13760;52.588;13.406;2022-07-18T16:46:38;4.82;;;3.70;;
25962;SDS011;13760;52.588;13.406;2022-07-18T16:49:09;7.60;;;3.60;;
25962;SDS011;13760;52.588;13.406;2022-07-18T16:51:40;6.45;;;3.60;;
25962;SDS011;13760;52.588;13.406;2022-07-18T16:54:41;7.38;;;3.42;;
25962;SDS011;13760;52.588;13.406;2022-07-18T16:57:18;6.80;;;4.00;;
25962;SDS011;13760;52.588;13.406;2022-07-18T16:59:48;7.70;;;4.25;;
25962;SDS011;13760;52.588;13.406;2022-07-18T17:02:51;5.13;;;3.83;;
25962;SDS011;13760;52.588;13.406;2022-07-18T17:05:20;8.75;;;4.20;;
25962;SDS011;13760;52.588;13.406;2022-07-18T17:19:05;5.88;;;3.90;;
25962;SDS011;13760;52.588;13.406;2022-07-18T17:21:31;6.88;;;4.18;;
25962;SDS011;13760;52.588;13.406;2022-07-18T17:24:06;6.43;;;4.30;;
25962;SDS011;13760;52.588;13.406;2022-07-18T17:26:46;7.72;;;4.10;;
25962;SDS011;13760;52.588;13.406;2022-07-18T17:29:19;7.78;;;4.00;;
25962;SDS011;13760;52.588;13.406;2022-07-18T17:31:56;6.10;;;4.57;;
25962;SDS011;13760;52.588;13.406;2022-07-18T17:34:31;5.72;;;4.28;;
25962;SDS011;13760;52.588;13.406;2022-07-18T17:37:01;7.43;;;4.25;;
25962;SDS011;13760;52.588;13.406;2022-07-18T17:46:15;5.50;;;3.65;;
25962;SDS011;13760;52.588;13.406;2022-07-18T17:48:53;8.25;;;3.88;;
25962;SDS011;13760;52.588;13.406;2022-07-18T17:54:45;7.35;;;4.22;;